logo
Search for airport 
image banner adimage banner adimage banner ad
image banner ad

SCIF - Chollinco

Located in Llifen, Chile

ICAO - SCIF, IATA -

Data provided by Airmate  

General information

Coordinates: S40°12'21" W72°13'53"
Elevation is 330 feet MSL.
Magnetic variation is 7° East
View others Airports in Los Ríos

Operational data

Special qualification required
Current time UTC:
Current local time:
Weather at : - ( 0 km )
METAR: PAQH 171327Z AUTO 13003KT 3SM -RA BR OVC008 07/07 A2989 RMK AO2 RAB00 CIG 005V012 P0001
View NOTAMs / SUP AIP / TFR affecting this airport [VIEW]
Communications frequencies: [VIEW]

Runways:

RWY identifierQFULength (ft)Width (ft)SurfaceLDA (ft)
11112°191969GRAS
29292°191969GRAS

Airport contact information

Address: Llifen Chile

Satellite view of SCIF